This is the latest recevied weather packets stored in our database for station/object F4AMY-13. If no packets are shown the sender has not sent any weather packets the latest 10 day(s).
| Time | Temp. | Humidity | Pressure | Rain* | Wind** | Luminosity | Snow |
|---|---|---|---|---|---|---|---|
| 1777378881 | 25.56° C | 50% | 1012.5 hPa | 0 mm | 192.67 m/s, ° | 431 W/m² | - |
| 1777378581 | 25.56° C | 48% | 1012.8 hPa | 0 mm | 195.8 m/s, ° | 438 W/m² | - |
| 1777378281 | 25.56° C | 48% | 1012.8 hPa | 0 mm | 195.8 m/s, ° | 438 W/m² | - |
| 1777377980 | 25° C | 46% | 1012.8 hPa | 0 mm | 193.57 m/s, ° | 433 W/m² | - |
| 1777377680 | 25° C | 49% | 1012.9 hPa | 0 mm | 196.25 m/s, ° | 439 W/m² | - |
| 1777377380 | 25° C | 51% | 1012.8 hPa | 0 mm | 191.33 m/s, ° | 428 W/m² | - |
| 1777377080 | 24.44° C | 47% | 1012.8 hPa | 0 mm | 192.23 m/s, ° | 430 W/m² | - |
| 1777376780 | 24.44° C | 48% | 1012.8 hPa | 0 mm | 197.14 m/s, ° | 441 W/m² | - |
| 1777376480 | 24.44° C | 49% | 1013 hPa | 0 mm | 198.04 m/s, ° | 443 W/m² | - |
| 1777376180 | 24.44° C | 47% | 1013.3 hPa | 0 mm | 191.78 m/s, ° | 429 W/m² | - |
| 1777375880 | 23.89° C | 50% | 1013 hPa | 0 mm | 191.78 m/s, ° | 429 W/m² | - |
| 1777375580 | 23.89° C | 47% | 1013 hPa | 0 mm | 185.07 m/s, ° | 414 W/m² | - |
| 1777375280 | 23.89° C | 47% | 1013.2 hPa | 0 mm | 181.05 m/s, ° | 405 W/m² | - |
| 1777374980 | 23.33° C | 51% | 1013.1 hPa | 0 mm | 172.11 m/s, ° | 385 W/m² | - |
| 1777374680 | 23.33° C | 49% | 1013.3 hPa | 0 mm | 172.56 m/s, ° | 386 W/m² | - |
| 1777374380 | 22.78° C | 54% | 1013.3 hPa | 0 mm | 175.69 m/s, ° | 393 W/m² | - |
| 1777374080 | 22.78° C | 59% | 1013.2 hPa | 0 mm | 181.5 m/s, ° | 406 W/m² | - |
| 1777373780 | 22.22° C | 60% | 1013.4 hPa | 0 mm | 179.26 m/s, ° | 401 W/m² | - |
| 1777373480 | 22.22° C | 62% | 1013.5 hPa | 0 mm | 172.56 m/s, ° | 386 W/m² | - |
| 1777373179 | 21.67° C | 62% | 1013.6 hPa | 0 mm | 124.72 m/s, ° | 279 W/m² | - |
| 1777372879 | 21.67° C | 62% | 1013.5 hPa | 0 mm | 167.19 m/s, ° | 374 W/m² | - |
| 1777372579 | 21.67° C | 63% | 1013.5 hPa | 0 mm | 95.67 m/s, ° | 214 W/m² | - |
| 1777372279 | 21.11° C | 64% | 1013.7 hPa | 0 mm | 80.47 m/s, ° | 180 W/m² | - |
| 1777371979 | 21.11° C | 64% | 1013.7 hPa | 0 mm | 50.52 m/s, ° | 113 W/m² | - |
| 1777371679 | 20.56° C | 66% | 1013.9 hPa | 0 mm | 33.98 m/s, ° | 76 W/m² | - |
* Rain latest hour (hover to see other rain measurements)
** Current wind speed in m/s (hover to see current wind gust speed)